Time;durP1;ratioP1;P1;durP2;ratioP2;P2;SDS_P1;SDS_P2;PMS_P1;PMS_P2;Temp;Humidity;BMP_temperature;BMP_pressure;BME280_temperature;BME280_humidity;BME280_pressure;Samples;Min_cycle;Max_cycle;Signal;HPM_P1;HPM_P2
2022/11/01 00:02:08;;;;;;;10.43;3.47;;;16.20;59.30;;;;;;5077961;28;20669;-81
2022/11/01 00:04:34;;;;;;;4.27;3.03;;;16.20;99.90;;;;;;5078588;28;20210;-81
2022/11/01 00:06:59;;;;;;;7.30;3.20;;;16.10;99.90;;;;;;5078644;28;20175;-81
2022/11/01 00:09:25;;;;;;;10.90;3.30;;;16.10;99.90;;;;;;5079572;28;20175;-82
2022/11/01 00:11:52;;;;;;;9.33;3.23;;;16.10;99.90;;;;;;5080424;28;20175;-82
2022/11/01 00:14:18;;;;;;;5.43;3.07;;;16.00;1.00;;;;;;5079921;28;20191;-82
2022/11/01 00:16:44;;;;;;;9.23;3.30;;;16.00;1.00;;;;;;5084673;28;20190;-81
2022/11/01 00:19:10;;;;;;;9.23;3.57;;;15.90;1.00;;;;;;5084717;28;20203;-81
2022/11/01 00:21:36;;;;;;;8.70;3.23;;;15.90;47.80;;;;;;5083606;28;20181;-82
2022/11/01 00:24:02;;;;;;;7.17;3.70;;;15.90;93.50;;;;;;5078133;28;20175;-81
2022/11/01 00:26:27;;;;;;;5.40;3.27;;;15.80;99.90;;;;;;5078338;28;20182;-82
2022/11/01 00:28:53;;;;;;;9.57;3.60;;;15.70;99.90;;;;;;5077843;28;20194;-82
2022/11/01 00:31:20;;;;;;;8.83;3.30;;;15.70;99.90;;;;;;5078420;28;20175;-82
2022/11/01 00:33:45;;;;;;;7.10;3.73;;;15.60;99.90;;;;;;5076809;28;20546;-82
2022/11/01 00:36:11;;;;;;;8.17;3.60;;;15.60;99.90;;;;;;5076682;28;20210;-82
2022/11/01 00:38:37;;;;;;;6.37;3.30;;;15.60;99.90;;;;;;5078556;28;20203;-82
2022/11/01 00:41:03;;;;;;;7.23;3.80;;;15.40;99.90;;;;;;5078517;28;20179;-82
2022/11/01 00:43:30;;;;;;;11.23;3.80;;;15.50;99.90;;;;;;5078263;28;20252;-82
2022/11/01 00:45:56;;;;;;;11.70;4.00;;;15.50;99.90;;;;;;5078991;28;20230;-82
2022/11/01 00:48:21;;;;;;;7.03;3.60;;;15.40;99.90;;;;;;5076908;28;20198;-82
2022/11/01 00:50:47;;;;;;;10.33;4.00;;;15.40;99.90;;;;;;5078995;28;20163;-82
2022/11/01 00:53:13;;;;;;;7.20;3.80;;;15.40;99.90;;;;;;5077856;28;20182;-82
2022/11/01 00:55:39;;;;;;;7.60;3.77;;;15.30;99.90;;;;;;5078920;28;20220;-82
2022/11/01 00:58:04;;;;;;;12.07;4.00;;;15.30;99.90;;;;;;5077015;28;20209;-82
2022/11/01 01:00:30;;;;;;;9.87;4.00;;;15.30;99.90;;;;;;5083015;28;20183;-80
2022/11/01 01:02:55;;;;;;;7.20;3.80;;;15.30;99.90;;;;;;5094417;28;20163;-80
2022/11/01 01:05:21;;;;;;;7.57;4.00;;;15.20;99.90;;;;;;5094021;28;20209;-80
2022/11/01 01:07:46;;;;;;;11.93;4.17;;;15.20;99.90;;;;;;5083455;28;20563;-82
2022/11/01 01:10:12;;;;;;;6.53;3.90;;;15.20;99.90;;;;;;5079307;28;20661;-80
2022/11/01 01:12:37;;;;;;;14.87;4.33;;;15.20;99.90;;;;;;5080955;28;20641;-82
2022/11/01 01:15:03;;;;;;;8.80;3.80;;;15.20;99.90;;;;;;5080087;28;20171;-83
2022/11/01 01:17:30;;;;;;;8.40;3.47;;;15.20;99.90;;;;;;5082174;28;20221;-82
2022/11/01 01:19:56;;;;;;;8.40;3.67;;;15.10;99.90;;;;;;5081220;28;20174;-82
2022/11/01 01:22:21;;;;;;;9.93;4.17;;;15.20;99.90;;;;;;5080288;28;20179;-82
2022/11/01 01:24:47;;;;;;;10.77;3.53;;;15.20;99.90;;;;;;5081654;28;20664;-82
2022/11/01 01:27:13;;;;;;;7.03;3.23;;;15.20;99.90;;;;;;5081496;28;20182;-82
2022/11/01 01:29:40;;;;;;;10.37;3.73;;;15.20;99.90;;;;;;5079968;28;20210;-81
2022/11/01 01:32:07;;;;;;;11.97;3.50;;;15.20;99.90;;;;;;5081358;28;20171;-82
2022/11/01 01:34:33;;;;;;;7.50;3.37;;;15.30;99.90;;;;;;5081687;28;20167;-82
2022/11/01 01:36:58;;;;;;;6.90;3.50;;;15.30;99.90;;;;;;5082322;28;20234;-82
2022/11/01 01:39:24;;;;;;;7.90;3.57;;;15.30;99.90;;;;;;5080539;28;20179;-82
2022/11/01 01:41:58;;;;;;;6.63;3.33;;;15.30;99.90;;;;;;5080877;28;20183;-83
2022/11/01 01:44:45;;;;;;;8.43;3.40;;;15.30;99.90;;;;;;5082268;28;20293;-82
2022/11/01 01:47:16;;;;;;;8.90;3.60;;;15.30;99.90;;;;;;5083093;28;20171;-82
2022/11/01 01:49:43;;;;;;;6.17;3.10;;;15.40;99.90;;;;;;5089601;28;20154;-80
2022/11/01 01:52:09;;;;;;;5.07;3.20;;;15.40;99.90;;;;;;5100286;28;20170;-79
2022/11/01 01:54:35;;;;;;;6.87;3.90;;;15.40;99.90;;;;;;5096218;28;20206;-82
2022/11/01 01:57:01;;;;;;;8.33;2.90;;;15.40;99.90;;;;;;5080906;28;20186;-81
2022/11/01 01:59:27;;;;;;;8.77;3.00;;;15.40;99.90;;;;;;5080389;28;20206;-82
2022/11/01 02:01:53;;;;;;;9.47;3.83;;;15.40;99.90;;;;;;5079698;28;20175;-82
2022/11/01 02:04:32;;;;;;;10.10;4.13;;;15.40;99.90;;;;;;5079091;28;20190;-81
2022/11/01 02:06:58;;;;;;;10.73;3.47;;;15.50;99.90;;;;;;5081007;28;20185;-80
2022/11/01 02:09:23;;;;;;;10.60;3.23;;;15.50;99.90;;;;;;5080334;28;20640;-82
2022/11/01 02:11:49;;;;;;;9.83;3.40;;;15.50;99.90;;;;;;5079731;28;20182;-82
2022/11/01 02:14:16;;;;;;;7.20;3.40;;;15.50;99.90;;;;;;5081483;28;20177;-82
2022/11/01 02:17:16;;;;;;;7.50;3.30;;;15.50;99.90;;;;;;5085001;28;20227;-80
2022/11/01 02:20:20;;;;;;;6.50;3.40;;;15.50;99.90;;;;;;5097442;28;20178;-80
2022/11/01 02:23:08;;;;;;;7.67;3.17;;;15.60;99.90;;;;;;5095813;28;20174;-82
2022/11/01 02:26:06;;;;;;;8.40;3.40;;;15.60;99.90;;;;;;5079224;28;20298;-82
2022/11/01 02:28:50;;;;;;;5.87;3.10;;;15.60;99.90;;;;;;5080602;28;20225;-81
2022/11/01 02:31:41;;;;;;;12.33;3.07;;;15.60;99.90;;;;;;5080479;28;20582;-81
2022/11/01 02:34:33;;;;;;;9.57;3.30;;;15.60;99.90;;;;;;5084675;28;20163;-80
2022/11/01 02:37:21;;;;;;;7.60;3.20;;;15.60;99.90;;;;;;5084900;28;20179;-81
2022/11/01 02:39:52;;;;;;;9.90;3.17;;;15.60;99.90;;;;;;5070869;28;20182;-82
2022/11/01 02:42:24;;;;;;;9.33;3.17;;;15.60;99.90;;;;;;5078698;28;20160;-82
2022/11/01 02:45:26;;;;;;;6.47;3.00;;;15.60;99.90;;;;;;5078373;28;20305;-82
2022/11/01 02:47:52;;;;;;;9.63;3.27;;;15.60;99.90;;;;;;5078340;28;20241;-82
2022/11/01 02:50:18;;;;;;;7.70;3.00;;;15.60;99.90;;;;;;5078988;28;20167;-82
2022/11/01 02:52:45;;;;;;;7.10;3.50;;;15.60;99.90;;;;;;5079247;28;20191;-82
2022/11/01 02:55:30;;;;;;;6.43;3.00;;;15.50;99.90;;;;;;5079548;28;20179;-82
2022/11/01 02:58:13;;;;;;;7.17;3.37;;;15.50;99.90;;;;;;5078558;28;20296;-80
2022/11/01 03:00:41;;;;;;;5.97;2.90;;;15.60;99.90;;;;;;5080439;28;20621;-81
2022/11/01 03:03:18;;;;;;;8.00;3.73;;;15.50;99.90;;;;;;5080430;28;20597;-82
2022/11/01 03:06:08;;;;;;;7.73;2.87;;;15.50;99.90;;;;;;5079147;28;20575;-82
2022/11/01 03:09:03;;;;;;;9.63;3.13;;;15.50;99.90;;;;;;5078428;28;20225;-82
2022/11/01 03:11:42;;;;;;;10.40;3.00;;;15.50;99.90;;;;;;5078401;28;20178;-82
2022/11/01 03:14:23;;;;;;;9.57;3.23;;;15.40;99.90;;;;;;5078722;28;20622;-81
2022/11/01 03:16:59;;;;;;;7.60;3.10;;;15.40;99.90;;;;;;5077210;28;20167;-82
2022/11/01 03:19:39;;;;;;;6.30;2.93;;;15.40;99.90;;;;;;5079568;28;20168;-82
2022/11/01 03:22:36;;;;;;;8.70;3.53;;;15.40;99.90;;;;;;5077541;28;20174;-82
2022/11/01 03:25:04;;;;;;;6.63;3.10;;;15.30;99.90;;;;;;5079160;28;20651;-81
2022/11/01 03:27:38;;;;;;;11.00;3.30;;;15.30;99.90;;;;;;5079104;28;20191;-82
2022/11/01 03:30:06;;;;;;;6.07;3.07;;;15.30;99.90;;;;;;5078567;28;20586;-81
2022/11/01 03:32:38;;;;;;;5.40;2.97;;;15.30;99.90;;;;;;5076592;28;20171;-82
2022/11/01 03:35:07;;;;;;;8.23;3.00;;;15.30;99.90;;;;;;5079137;28;20216;-81
2022/11/01 03:37:35;;;;;;;5.03;2.77;;;15.30;99.90;;;;;;5077915;28;20217;-82
2022/11/01 03:40:03;;;;;;;6.20;3.37;;;15.30;99.90;;;;;;5077018;28;20187;-82
2022/11/01 03:42:31;;;;;;;7.73;3.17;;;15.30;99.90;;;;;;5078745;28;20566;-81
2022/11/01 03:45:01;;;;;;;5.03;2.87;;;15.30;99.90;;;;;;5078297;28;20220;-82
2022/11/01 03:47:28;;;;;;;6.20;3.43;;;15.30;99.90;;;;;;5077353;28;20191;-81
2022/11/01 03:50:12;;;;;;;6.80;3.47;;;15.40;99.90;;;;;;5077024;28;20171;-81
2022/11/01 03:52:38;;;;;;;7.77;3.60;;;15.40;99.90;;;;;;5078705;28;20178;-82
2022/11/01 03:55:16;;;;;;;7.00;3.13;;;15.40;99.90;;;;;;5076748;28;20174;-82
2022/11/01 03:57:46;;;;;;;8.40;3.20;;;15.40;99.90;;;;;;5076815;28;20203;-82
2022/11/01 04:00:14;;;;;;;6.27;3.40;;;15.40;99.90;;;;;;5076719;28;20175;-81
2022/11/01 04:02:41;;;;;;;9.27;3.47;;;15.50;99.90;;;;;;5075939;28;20193;-81
2022/11/01 04:05:06;;;;;;;4.73;2.93;;;15.50;99.90;;;;;;5078007;28;20700;-79
2022/11/01 04:07:32;;;;;;;5.93;3.10;;;15.50;99.90;;;;;;5076755;28;20194;-81
2022/11/01 04:09:57;;;;;;;6.03;3.40;;;15.50;99.90;;;;;;5077205;28;20225;-81
2022/11/01 04:12:23;;;;;;;5.07;2.93;;;15.60;99.90;;;;;;5078291;28;20179;-82
2022/11/01 04:20:32;;;;;;;7.67;3.17;;;15.60;99.90;;;;;;5078220;28;20209;-82
2022/11/01 04:23:02;;;;;;;7.73;3.13;;;15.60;99.90;;;;;;5079348;28;20159;-82
2022/11/01 04:25:28;;;;;;;4.33;2.70;;;15.60;99.90;;;;;;5077262;28;20228;-81
2022/11/01 04:27:57;;;;;;;4.47;3.20;;;15.70;99.90;;;;;;5076750;28;20195;-81
2022/11/01 04:30:28;;;;;;;6.60;2.67;;;15.60;99.90;;;;;;5077115;28;20174;-82
2022/11/01 04:32:54;;;;;;;5.93;2.77;;;15.60;99.90;;;;;;5078954;28;20487;-82
2022/11/01 04:35:21;;;;;;;7.47;3.10;;;15.60;99.90;;;;;;5078593;28;20186;-82
2022/11/01 04:37:47;;;;;;;4.07;2.87;;;15.60;99.90;;;;;;5079049;28;20195;-82
2022/11/01 04:40:13;;;;;;;7.30;3.07;;;15.60;99.90;;;;;;5077937;28;20175;-81
2022/11/01 04:42:39;;;;;;;10.57;3.03;;;15.60;99.90;;;;;;5080078;28;20277;-81
2022/11/01 04:45:07;;;;;;;4.83;3.00;;;15.60;99.90;;;;;;5081623;28;20263;-82
2022/11/01 04:47:33;;;;;;;5.40;2.63;;;15.70;99.90;;;;;;5082177;28;20187;-82
2022/11/01 04:49:59;;;;;;;6.33;2.20;;;15.60;99.90;;;;;;5084095;28;20216;-83
2022/11/01 04:52:25;;;;;;;6.67;2.33;;;15.60;99.90;;;;;;5086704;28;20203;-81
2022/11/01 04:54:51;;;;;;;4.43;2.33;;;15.70;99.90;;;;;;5094035;28;20680;-82
2022/11/01 04:57:23;;;;;;;5.43;2.23;;;15.70;99.90;;;;;;5093175;28;20254;-82
2022/11/01 04:59:53;;;;;;;3.87;2.10;;;15.80;99.90;;;;;;5088487;28;20161;-81
2022/11/01 05:02:20;;;;;;;6.07;2.63;;;15.90;99.90;;;;;;5098878;28;20174;-80
2022/11/01 05:04:45;;;;;;;7.93;2.40;;;15.90;99.90;;;;;;5098123;28;20271;-82
2022/11/01 05:07:12;;;;;;;4.90;3.03;;;15.90;99.90;;;;;;5081459;28;20190;-82
2022/11/01 05:09:37;;;;;;;5.77;2.10;;;15.90;99.90;;;;;;5079553;28;20271;-82
2022/11/01 05:12:03;;;;;;;5.97;2.57;;;15.90;99.90;;;;;;5079535;28;20206;-82
2022/11/01 05:14:28;;;;;;;7.43;2.60;;;15.90;99.90;;;;;;5081407;28;20178;-81
2022/11/01 05:16:55;;;;;;;4.93;2.33;;;15.90;99.90;;;;;;5079936;28;20213;-82
2022/11/01 05:19:20;;;;;;;3.83;2.23;;;15.90;99.90;;;;;;5080508;28;20213;-82
2022/11/01 05:21:46;;;;;;;6.17;2.10;;;15.90;99.90;;;;;;5082077;28;20178;-82
2022/11/01 05:24:12;;;;;;;4.17;1.87;;;16.00;99.90;;;;;;5080478;28;20552;-81
2022/11/01 05:26:37;;;;;;;7.97;2.23;;;16.10;99.90;;;;;;5080549;28;20269;-81
2022/11/01 05:29:03;;;;;;;7.23;1.87;;;16.20;99.90;;;;;;5082323;28;20214;-81
2022/11/01 05:31:29;;;;;;;5.27;1.90;;;16.20;99.90;;;;;;5082311;28;20171;-81
2022/11/01 05:33:54;;;;;;;3.90;2.03;;;16.30;90.70;;;;;;5082138;28;20262;-82
2022/11/01 05:36:19;;;;;;;5.03;1.63;;;16.30;26.80;;;;;;5081731;28;20178;-82
2022/11/01 05:38:45;;;;;;;2.97;1.70;;;16.30;6.40;;;;;;5079811;28;20201;-82
2022/11/01 05:41:10;;;;;;;5.30;1.90;;;16.30;21.70;;;;;;5081186;28;20178;-82
2022/11/01 05:43:36;;;;;;;5.10;1.70;;;16.20;1.00;;;;;;5081112;28;20190;-81
2022/11/01 05:46:03;;;;;;;4.37;1.70;;;16.30;1.00;;;;;;5082529;28;20198;-83
2022/11/01 05:48:28;;;;;;;2.47;1.70;;;16.50;1.00;;;;;;5081994;28;20597;-82
2022/11/01 05:50:54;;;;;;;2.27;1.50;;;16.40;1.00;;;;;;5079432;28;20174;-83
2022/11/01 05:53:19;;;;;;;4.73;1.90;;;16.30;1.00;;;;;;5079035;28;20202;-82
2022/11/01 05:55:45;;;;;;;4.77;1.70;;;16.30;1.00;;;;;;5080305;28;20181;-82
2022/11/01 05:58:10;;;;;;;4.30;1.53;;;16.30;1.00;;;;;;5079392;28;20248;-81
2022/11/01 06:00:36;;;;;;;5.50;1.70;;;16.40;99.90;;;;;;5079731;28;20190;-81
2022/11/01 06:03:02;;;;;;;5.83;1.60;;;16.40;99.90;;;;;;5081441;28;20547;-82
2022/11/01 06:05:28;;;;;;;3.30;1.50;;;16.50;99.90;;;;;;5080170;28;20694;-82
2022/11/01 06:07:54;;;;;;;6.27;1.47;;;16.50;99.90;;;;;;5081129;28;20191;-82
2022/11/01 06:10:20;;;;;;;3.77;1.30;;;16.50;99.90;;;;;;5081010;28;20177;-82
2022/11/01 06:12:45;;;;;;;4.20;1.20;;;16.50;99.90;;;;;;5079715;28;20194;-81
2022/11/01 06:15:11;;;;;;;3.30;1.20;;;16.60;1.00;;;;;;5079454;28;20187;-81
2022/11/01 06:17:36;;;;;;;4.70;1.37;;;16.50;1.00;;;;;;5080099;28;20571;-82
2022/11/01 06:20:02;;;;;;;4.60;1.67;;;16.40;99.90;;;;;;5080283;28;20189;-81
2022/11/01 06:22:27;;;;;;;4.20;2.07;;;16.40;99.90;;;;;;5079651;28;20202;-80
2022/11/01 06:24:53;;;;;;;4.33;1.53;;;16.30;50.30;;;;;;5079882;28;20264;-82
2022/11/01 06:27:18;;;;;;;1.60;0.93;;;16.20;99.90;;;;;;5080846;28;20225;-82
2022/11/01 06:29:44;;;;;;;2.60;1.03;;;16.20;99.90;;;;;;5080826;28;20171;-82
2022/11/01 06:32:09;;;;;;;4.30;1.00;;;16.00;99.90;;;;;;5079585;28;20182;-80
2022/11/01 06:34:35;;;;;;;3.80;1.40;;;16.10;95.50;;;;;;5081405;28;20175;-82
2022/11/01 06:37:01;;;;;;;3.57;0.87;;;15.90;99.90;;;;;;5080620;28;20190;-81
2022/11/01 06:39:26;;;;;;;2.27;0.90;;;15.70;99.90;;;;;;5081514;28;20532;-82
2022/11/01 06:41:52;;;;;;;1.47;0.90;;;15.70;99.90;;;;;;5080977;28;20186;-82
2022/11/01 06:44:18;;;;;;;4.63;2.23;;;15.70;99.90;;;;;;5080936;28;20195;-82
2022/11/01 06:46:43;;;;;;;1.97;1.00;;;15.60;95.00;;;;;;5081708;28;20182;-82
2022/11/01 06:49:09;;;;;;;2.33;1.00;;;15.50;1.00;;;;;;5078562;28;20259;-82
2022/11/01 06:51:34;;;;;;;3.77;0.93;;;15.60;1.00;;;;;;5081047;28;20548;-80
2022/11/01 06:54:00;;;;;;;1.63;0.70;;;15.40;1.00;;;;;;5080121;28;20228;-82
2022/11/01 06:56:25;;;;;;;3.00;0.70;;;15.40;1.00;;;;;;5082273;28;20235;-82
2022/11/01 06:58:51;;;;;;;4.20;0.93;;;15.30;1.00;;;;;;5080937;28;20261;-82
2022/11/01 07:01:21;;;;;;;2.17;1.00;;;15.20;1.00;;;;;;5081448;28;20265;-81
2022/11/01 07:03:52;;;;;;;5.77;1.00;;;15.20;1.00;;;;;;5084674;28;20189;-80
2022/11/01 07:06:18;;;;;;;5.27;1.17;;;15.10;1.00;;;;;;5094945;28;20237;-78
2022/11/01 07:08:44;;;;;;;1.97;0.87;;;15.00;1.00;;;;;;5094628;28;20194;-79
2022/11/01 07:11:09;;;;;;;2.00;0.70;;;15.00;1.00;;;;;;5094697;28;20189;-81
2022/11/01 07:13:37;;;;;;;3.77;0.90;;;14.90;1.00;;;;;;5090155;28;20166;-80
2022/11/01 07:16:03;;;;;;;3.57;0.70;;;14.80;1.00;;;;;;5084050;28;20163;-81
2022/11/01 07:18:30;;;;;;;2.27;0.77;;;14.80;1.00;;;;;;5078715;28;20198;-81
2022/11/01 07:20:55;;;;;;;3.83;0.70;;;14.70;1.00;;;;;;5079370;28;20522;-80
2022/11/01 07:23:21;;;;;;;2.60;1.23;;;14.60;1.00;;;;;;5082393;28;20163;-81
2022/11/01 07:25:52;;;;;;;2.63;1.10;;;14.60;1.00;;;;;;5080587;28;20190;-82
2022/11/01 07:28:18;;;;;;;0.90;0.63;;;14.50;1.00;;;;;;5079729;28;20264;-81
2022/11/01 07:30:48;;;;;;;3.80;1.00;;;14.50;1.00;;;;;;5079046;28;20548;-81
2022/11/01 07:33:14;;;;;;;2.60;0.77;;;14.50;99.90;;;;;;5077773;28;20171;-81
2022/11/01 07:35:39;;;;;;;2.30;0.50;;;14.40;99.90;;;;;;5080214;28;20303;-80
2022/11/01 07:38:05;;;;;;;4.53;0.60;;;14.40;1.00;;;;;;5084212;28;20195;-81
2022/11/01 07:40:30;;;;;;;6.10;0.87;;;14.30;1.00;;;;;;5080035;28;20179;-82
2022/11/01 07:42:59;;;;;;;3.47;0.90;;;14.30;1.00;;;;;;5077964;28;20182;-81
2022/11/01 07:45:27;;;;;;;0.70;0.57;;;14.30;99.90;;;;;;5078417;28;20183;-84
2022/11/01 07:48:03;;;;;;;4.33;1.00;;;14.30;1.00;;;;;;5077475;28;20222;-82
2022/11/01 07:50:30;;;;;;;2.67;0.60;;;14.30;1.00;;;;;;5057416;28;20175;-83
2022/11/01 07:53:00;;;;;;;1.47;0.90;;;14.30;1.00;;;;;;5057589;28;20706;-82
2022/11/01 07:55:25;;;;;;;2.47;1.00;;;14.30;1.00;;;;;;5058662;28;20174;-83
2022/11/01 07:57:51;;;;;;;1.50;0.70;;;14.30;1.00;;;;;;5058719;28;20223;-83
2022/11/01 08:00:16;;;;;;;1.30;0.60;;;14.30;1.00;;;;;;5057194;28;20696;-83
2022/11/01 08:02:42;;;;;;;2.87;0.83;;;14.30;99.90;;;;;;5060355;28;20200;-84
2022/11/01 08:05:09;;;;;;;1.70;0.63;;;14.30;99.90;;;;;;5065855;28;20199;-83
2022/11/01 08:07:38;;;;;;;2.30;1.10;;;14.40;36.20;;;;;;5078783;28;20728;-83
2022/11/01 08:10:06;;;;;;;3.27;0.93;;;14.40;99.90;;;;;;5079401;28;20167;-83
2022/11/01 08:12:31;;;;;;;4.73;1.10;;;14.40;71.90;;;;;;5082752;28;20174;-80
2022/11/01 08:14:57;;;;;;;4.23;0.60;;;14.40;62.50;;;;;;5093312;28;20253;-79
2022/11/01 08:17:23;;;;;;;3.97;0.90;;;14.40;97.90;;;;;;5094233;28;20197;-82
2022/11/01 08:19:48;;;;;;;3.63;0.90;;;14.40;99.90;;;;;;5083248;28;20182;-82
2022/11/01 08:22:14;;;;;;;3.40;1.23;;;14.40;1.00;;;;;;5082492;28;20199;-81
2022/11/01 08:24:39;;;;;;;5.87;1.00;;;14.50;99.90;;;;;;5082242;28;20198;-80
2022/11/01 08:27:05;;;;;;;8.00;0.97;;;14.50;99.90;;;;;;5080539;28;20229;-81
2022/11/01 08:29:30;;;;;;;1.77;0.77;;;14.50;99.90;;;;;;5081362;28;20220;-80
2022/11/01 08:31:56;;;;;;;3.23;1.10;;;14.50;99.90;;;;;;5081410;28;20536;-80
2022/11/01 08:34:21;;;;;;;4.17;1.00;;;14.40;1.00;;;;;;5079153;28;20183;-81
2022/11/01 08:36:47;;;;;;;7.23;1.30;;;14.50;1.00;;;;;;5078733;28;20179;-82
2022/11/01 08:39:12;;;;;;;7.73;1.13;;;14.50;1.00;;;;;;5079497;28;20209;-81
2022/11/01 08:41:38;;;;;;;3.90;1.20;;;14.50;99.90;;;;;;5077469;28;20641;-81
2022/11/01 08:44:03;;;;;;;4.47;1.13;;;14.50;1.00;;;;;;5081197;28;20191;-81
2022/11/01 08:46:29;;;;;;;7.90;1.60;;;14.50;99.90;;;;;;5080390;28;20233;-80
2022/11/01 08:48:57;;;;;;;6.10;1.40;;;14.50;1.00;;;;;;5080993;28;20239;-79
2022/11/01 08:51:24;;;;;;;7.60;1.57;;;14.50;57.20;;;;;;5081028;28;20191;-81
2022/11/01 08:53:55;;;;;;;7.53;1.27;;;14.50;1.00;;;;;;5066824;28;20680;-81
2022/11/01 08:56:23;;;;;;;6.63;1.47;;;14.60;1.00;;;;;;5060405;28;20191;-82
2022/11/01 08:58:50;;;;;;;7.87;1.63;;;14.60;1.00;;;;;;5059667;28;20196;-84
2022/11/01 09:01:16;;;;;;;8.83;1.40;;;14.60;1.00;;;;;;5060519;28;20584;-84
2022/11/01 09:03:42;;;;;;;5.93;1.50;;;14.60;1.00;;;;;;5060919;28;20180;-84
2022/11/01 09:06:07;;;;;;;6.87;1.50;;;14.60;1.00;;;;;;5063788;28;20207;-84
2022/11/01 09:08:33;;;;;;;11.77;1.53;;;14.60;1.00;;;;;;5062739;28;20192;-83
2022/11/01 09:10:58;;;;;;;5.17;1.60;;;14.60;1.00;;;;;;5080198;28;20175;-84
2022/11/01 09:13:24;;;;;;;10.30;1.77;;;14.60;99.90;;;;;;5080944;28;20174;-83
2022/11/01 09:15:50;;;;;;;11.27;1.40;;;14.60;99.90;;;;;;5079317;28;20232;-84
2022/11/01 09:18:15;;;;;;;7.13;1.67;;;14.60;1.00;;;;;;5079445;28;20198;-83
2022/11/01 09:20:41;;;;;;;11.57;1.33;;;14.70;1.00;;;;;;5080830;28;20228;-84
2022/11/01 09:23:06;;;;;;;6.97;1.23;;;14.70;1.00;;;;;;5081693;28;20171;-83
2022/11/01 09:25:32;;;;;;;9.17;1.53;;;14.70;1.00;;;;;;5076169;28;20238;-85
2022/11/01 09:27:58;;;;;;;8.93;1.60;;;14.70;99.90;;;;;;5092376;28;20229;-83
2022/11/01 09:30:24;;;;;;;6.23;1.67;;;14.80;1.00;;;;;;5090133;28;20203;-84
2022/11/01 09:32:50;;;;;;;4.97;1.53;;;14.80;1.00;;;;;;5091443;28;20266;-82
2022/11/01 09:35:16;;;;;;;9.93;1.33;;;14.80;1.00;;;;;;5098905;28;20167;-80
2022/11/01 09:37:42;;;;;;;6.87;1.40;;;14.80;99.90;;;;;;5100154;28;20199;-83
2022/11/01 09:40:09;;;;;;;7.73;1.67;;;14.90;1.00;;;;;;5081968;28;20571;-82
2022/11/01 09:42:42;;;;;;;8.63;1.77;;;14.90;1.00;;;;;;5079349;28;20171;-83
2022/11/01 09:45:21;;;;;;;7.77;1.20;;;14.90;99.90;;;;;;5078468;28;20719;-83
2022/11/01 09:47:51;;;;;;;6.83;1.40;;;15.00;1.00;;;;;;5079600;28;20190;-84
2022/11/01 09:50:29;;;;;;;5.33;1.13;;;15.00;1.00;;;;;;5077212;28;20266;-84
2022/11/01 09:52:56;;;;;;;5.60;1.30;;;15.10;1.00;;;;;;5078481;28;20212;-82
2022/11/01 09:55:46;;;;;;;7.97;1.30;;;15.10;1.00;;;;;;5080138;28;20250;-82
2022/11/01 09:58:44;;;;;;;4.20;1.20;;;15.10;99.90;;;;;;5079249;28;20209;-84
2022/11/01 10:01:39;;;;;;;7.17;1.23;;;15.20;99.90;;;;;;5079011;28;20564;-84
2022/11/01 10:04:08;;;;;;;7.30;1.10;;;15.20;1.00;;;;;;5078834;28;20555;-83
2022/11/01 10:06:39;;;;;;;5.07;1.43;;;15.20;99.90;;;;;;5077438;28;20234;-83
2022/11/01 10:09:49;;;;;;;4.93;0.90;;;15.30;99.90;;;;;;5079296;28;20278;-84
2022/11/01 10:12:26;;;;;;;8.10;1.93;;;15.30;99.90;;;;;;5077139;28;20641;-83
2022/11/01 10:15:25;;;;;;;4.50;1.20;;;15.40;1.00;;;;;;5077343;28;20177;-83
2022/11/01 10:17:53;;;;;;;6.43;1.57;;;15.40;1.00;;;;;;5072789;28;20245;-85
2022/11/01 10:20:23;;;;;;;4.60;1.07;;;15.50;40.50;;;;;;5073098;28;20194;-82
2022/11/01 10:22:49;;;;;;;5.20;1.20;;;15.50;99.90;;;;;;5068065;28;20178;-83
2022/11/01 10:25:22;;;;;;;8.07;1.93;;;15.50;99.90;;;;;;5075981;28;20336;-82
2022/11/01 10:28:00;;;;;;;6.17;1.37;;;15.50;99.90;;;;;;5076432;28;20187;-83
2022/11/01 10:30:30;;;;;;;6.23;1.13;;;15.60;99.90;;;;;;5079250;28;20613;-82
2022/11/01 10:33:22;;;;;;;7.47;1.37;;;15.80;99.90;;;;;;5076535;28;20171;-83
2022/11/01 10:35:59;;;;;;;7.37;1.30;;;15.70;99.90;;;;;;5075362;28;20189;-82
2022/11/01 10:38:46;;;;;;;11.30;1.50;;;15.70;1.00;;;;;;5078010;28;20190;-84
2022/11/01 10:41:35;;;;;;;6.83;1.40;;;15.80;1.00;;;;;;5076128;28;20163;-83
2022/11/01 10:44:06;;;;;;;8.73;1.67;;;15.80;1.00;;;;;;5075697;28;20215;-84
2022/11/01 10:46:41;;;;;;;3.90;1.07;;;15.90;1.00;;;;;;5076319;28;20213;-82
2022/11/01 10:49:18;;;;;;;8.97;1.40;;;15.80;1.00;;;;;;5076237;28;20190;-83
2022/11/01 10:51:45;;;;;;;5.60;1.57;;;15.90;1.00;;;;;;5076436;28;20200;-83
2022/11/01 10:54:18;;;;;;;8.93;1.77;;;15.90;1.00;;;;;;5080211;28;20197;-83
2022/11/01 10:56:48;;;;;;;5.67;1.40;;;16.00;1.00;;;;;;5076432;28;20258;-82
2022/11/01 10:59:17;;;;;;;6.47;1.57;;;16.10;1.00;;;;;;5078938;28;20733;-83
2022/11/01 11:01:44;;;;;;;5.57;1.47;;;16.10;1.00;;;;;;5078155;28;20179;-82
2022/11/01 11:04:14;;;;;;;9.20;1.97;;;16.10;1.00;;;;;;5079080;28;20193;-82
2022/11/01 11:06:41;;;;;;;8.00;1.60;;;16.10;1.00;;;;;;5076460;28;20380;-81
2022/11/01 11:09:17;;;;;;;6.70;1.20;;;16.00;1.00;;;;;;5078432;28;20217;-82
2022/11/01 11:11:46;;;;;;;8.90;2.20;;;16.10;1.00;;;;;;5077026;28;20708;-82
2022/11/01 11:14:13;;;;;;;10.40;1.80;;;16.10;1.00;;;;;;5077808;28;20167;-83
2022/11/01 11:16:46;;;;;;;8.90;1.67;;;16.20;1.00;;;;;;5076100;28;20175;-78
2022/11/01 11:19:18;;;;;;;6.80;1.50;;;16.10;1.00;;;;;;5077870;28;20301;-81
2022/11/01 11:21:46;;;;;;;5.10;1.70;;;16.20;1.00;;;;;;5076969;28;20179;-81
2022/11/01 11:24:38;;;;;;;11.97;1.50;;;16.10;1.00;;;;;;5069805;28;20663;-82
2022/11/01 11:27:17;;;;;;;7.53;1.50;;;16.20;1.00;;;;;;5073984;28;20202;-82
2022/11/01 11:29:56;;;;;;;5.43;1.13;;;16.20;1.00;;;;;;5086381;28;20186;-80
2022/11/01 11:32:34;;;;;;;6.10;1.60;;;16.20;1.00;;;;;;5094920;28;20153;-80
2022/11/01 11:35:16;;;;;;;6.00;1.27;;;16.30;1.00;;;;;;5084462;28;20206;-82
2022/11/01 11:37:54;;;;;;;6.37;1.50;;;16.30;1.00;;;;;;5075935;28;20202;-83
2022/11/01 11:40:25;;;;;;;7.00;1.80;;;16.40;1.00;;;;;;5077050;28;20197;-84
2022/11/01 11:42:53;;;;;;;6.37;1.20;;;16.40;1.00;;;;;;5078811;28;20244;-83
2022/11/01 11:45:26;;;;;;;5.03;1.53;;;16.50;1.00;;;;;;5092365;28;20248;-83
2022/11/01 11:47:53;;;;;;;9.27;1.83;;;16.40;1.00;;;;;;5086779;28;20187;-80
2022/11/01 11:50:18;;;;;;;8.53;1.57;;;16.50;1.00;;;;;;5077242;28;20175;-82
2022/11/01 11:52:46;;;;;;;5.23;1.40;;;16.50;1.00;;;;;;5074695;28;20203;-82
2022/11/01 11:55:34;;;;;;;9.00;1.67;;;16.50;1.00;;;;;;5076278;28;20186;-81
2022/11/01 11:58:00;;;;;;;6.80;1.97;;;16.50;1.00;;;;;;5075971;28;20212;-82
2022/11/01 12:00:28;;;;;;;8.27;1.50;;;16.50;1.00;;;;;;5075675;28;20242;-82
2022/11/01 12:02:54;;;;;;;10.23;1.80;;;16.50;1.00;;;;;;5075418;28;20232;-83
2022/11/01 12:05:22;;;;;;;12.60;1.93;;;16.60;1.00;;;;;;5075613;28;20198;-82
2022/11/01 12:07:53;;;;;;;5.50;1.40;;;16.60;1.00;;;;;;5076469;28;20691;-81
2022/11/01 12:10:32;;;;;;;3.70;1.37;;;16.70;1.00;;;;;;5073962;28;20178;-81
2022/11/01 12:13:00;;;;;;;5.43;1.30;;;16.70;1.00;;;;;;5074289;28;20202;-81
2022/11/01 12:15:28;;;;;;;11.17;1.70;;;16.50;1.00;;;;;;5076375;28;20171;-81
2022/11/01 12:17:55;;;;;;;5.63;1.40;;;16.60;1.00;;;;;;5076281;28;20202;-81
2022/11/01 12:20:23;;;;;;;6.73;1.73;;;16.60;1.00;;;;;;5075829;28;20171;-81
2022/11/01 12:22:52;;;;;;;7.23;1.63;;;16.50;1.00;;;;;;5074537;28;20544;-82
2022/11/01 12:25:23;;;;;;;6.10;1.33;;;16.50;1.00;;;;;;5074390;28;20571;-81
2022/11/01 12:27:53;;;;;;;7.70;2.07;;;16.60;1.00;;;;;;5072956;28;20292;-81
2022/11/01 12:30:22;;;;;;;10.37;1.83;;;16.60;1.00;;;;;;5074403;28;20174;-82
2022/11/01 12:32:53;;;;;;;7.20;1.40;;;16.60;1.00;;;;;;5075441;28;20546;-81
2022/11/01 12:35:27;;;;;;;6.20;1.57;;;16.70;1.00;;;;;;5074889;28;20613;-80
2022/11/01 12:38:01;;;;;;;9.37;1.53;;;16.70;1.00;;;;;;5075736;28;20194;-80
2022/11/01 12:40:35;;;;;;;8.23;1.87;;;16.70;1.00;;;;;;5076229;28;20170;-81
2022/11/01 12:43:08;;;;;;;6.57;1.43;;;16.70;1.00;;;;;;5073901;28;20564;-82
2022/11/01 12:45:58;;;;;;;8.33;1.70;;;16.70;1.00;;;;;;5075085;28;20250;-81
2022/11/01 12:48:40;;;;;;;8.23;2.03;;;16.70;1.00;;;;;;5074633;28;20191;-82
2022/11/01 12:51:26;;;;;;;8.77;1.50;;;16.80;1.00;;;;;;5076121;28;20245;-81
2022/11/01 12:54:04;;;;;;;7.30;1.33;;;16.80;1.00;;;;;;5075941;28;20163;-81
2022/11/01 12:56:30;;;;;;;9.47;2.10;;;16.90;1.00;;;;;;5075329;28;20171;-81
2022/11/01 12:58:56;;;;;;;8.67;1.40;;;16.90;1.00;;;;;;5065542;28;20222;-82
2022/11/01 13:01:38;;;;;;;5.67;1.20;;;17.00;1.00;;;;;;5074384;28;20205;-82
2022/11/01 13:04:27;;;;;;;4.77;1.63;;;16.90;1.00;;;;;;5075355;28;20171;-81
2022/11/01 13:07:10;;;;;;;12.67;2.10;;;16.90;1.00;;;;;;5078861;28;20602;-83
2022/11/01 13:10:06;;;;;;;6.17;1.37;;;16.80;1.00;;;;;;5080013;28;20230;-82
2022/11/01 13:12:49;;;;;;;7.63;1.77;;;16.90;1.00;;;;;;5080726;28;20163;-80